Time;durP1;ratioP1;P1;durP2;ratioP2;P2;SDS_P1;SDS_P2;PMS_P1;PMS_P2;Temp;Humidity;BMP_temperature;BMP_pressure;BME280_temperature;BME280_humidity;BME280_pressure;Samples;Min_cycle;Max_cycle;Signal;HPM_P1;HPM_P2
2022/12/07 00:01:29;;;;;;;11.85;5.83;;;;;;;-9.94;100.00;101507.94;1663158;85;21055;-61
2022/12/07 00:04:03;;;;;;;12.55;6.37;;;;;;;-9.93;100.00;101495.73;1663116;86;20936;-62
2022/12/07 00:06:27;;;;;;;15.28;7.25;;;;;;;-9.95;100.00;101497.02;1663238;86;21111;-62
2022/12/07 00:08:55;;;;;;;13.85;7.10;;;;;;;-9.97;100.00;101508.81;1663822;85;21529;-64
2022/12/07 00:11:22;;;;;;;14.38;6.50;;;;;;;-9.98;100.00;101498.75;1663429;85;21235;-63
2022/12/07 00:13:57;;;;;;;13.80;5.90;;;;;;;-10.01;100.00;101492.48;1653789;85;20987;-65
2022/12/07 00:16:27;;;;;;;11.78;5.92;;;;;;;-10.01;100.00;101505.09;1641984;87;21045;-62
2022/12/07 00:18:54;;;;;;;12.18;5.78;;;;;;;-10.02;100.00;101495.44;1650356;85;20915;-65
2022/12/07 00:21:23;;;;;;;11.97;5.60;;;;;;;-10.02;100.00;101495.88;1670307;85;21637;-65
2022/12/07 00:23:52;;;;;;;12.18;6.15;;;;;;;-10.04;100.00;101494.61;1670503;85;21235;-62
2022/12/07 00:26:24;;;;;;;14.98;6.85;;;;;;;-10.06;100.00;101494.65;1670482;84;20923;-62
2022/12/07 00:28:54;;;;;;;13.65;6.67;;;;;;;-10.09;100.00;101491.34;1670526;84;21073;-64
2022/12/07 00:31:23;;;;;;;12.40;6.53;;;;;;;-10.11;100.00;101496.84;1669828;84;21062;-64
2022/12/07 00:33:51;;;;;;;11.48;5.45;;;;;;;-10.14;100.00;101480.06;1670404;85;21371;-62
2022/12/07 00:36:21;;;;;;;12.03;6.58;;;;;;;-10.15;100.00;101467.05;1670558;84;22305;-62
2022/12/07 00:38:50;;;;;;;9.60;4.58;;;;;;;-10.17;100.00;101478.84;1670798;85;27070;-62
2022/12/07 00:41:19;;;;;;;14.73;5.80;;;;;;;-10.19;100.00;101470.48;1645244;85;21081;-63
2022/12/07 00:43:47;;;;;;;11.45;5.20;;;;;;;-10.21;100.00;101475.13;1641119;87;21097;-62
2022/12/07 00:46:14;;;;;;;10.13;5.25;;;;;;;-10.24;100.00;101469.69;1641916;87;21504;-62
2022/12/07 00:48:42;;;;;;;11.75;5.30;;;;;;;-10.26;100.00;101471.84;1641938;87;22273;-62
2022/12/07 00:51:12;;;;;;;10.88;5.78;;;;;;;-10.29;100.00;101468.96;1641219;87;21384;-65
2022/12/07 00:53:40;;;;;;;10.20;5.08;;;;;;;-10.30;100.00;101472.34;1641937;87;21334;-62
2022/12/07 00:56:16;;;;;;;10.85;5.12;;;;;;;-10.31;100.00;101475.69;1641348;87;21073;-62
2022/12/07 00:58:43;;;;;;;11.63;6.40;;;;;;;-10.31;100.00;101477.78;1641528;87;21030;-62
2022/12/07 01:01:11;;;;;;;11.80;5.42;;;;;;;-10.32;100.00;101476.12;1641671;87;21493;-61
2022/12/07 01:03:39;;;;;;;12.35;5.60;;;;;;;-10.32;100.00;101473.61;1631195;87;21080;-65
2022/12/07 01:06:07;;;;;;;9.83;4.40;;;;;;;-10.32;100.00;101474.03;1605423;87;21035;-63
2022/12/07 01:08:34;;;;;;;11.63;5.67;;;;;;;-10.32;100.00;101467.73;1613036;87;21431;-61
2022/12/07 01:11:05;;;;;;;12.03;5.58;;;;;;;-10.33;100.00;101464.81;1617331;88;21113;-62
2022/12/07 01:13:34;;;;;;;8.90;4.23;;;;;;;-10.35;100.00;101467.34;1617995;88;21128;-62
2022/12/07 01:16:03;;;;;;;16.25;5.70;;;;;;;-10.34;100.00;101458.95;1617159;87;21347;-62
2022/12/07 01:18:33;;;;;;;10.10;5.83;;;;;;;-10.34;100.00;101460.61;1617383;88;21023;-63
2022/12/07 01:21:06;;;;;;;11.00;5.53;;;;;;;-10.36;100.00;101456.03;1617733;88;21041;-61
2022/12/07 01:23:34;;;;;;;11.18;5.35;;;;;;;-10.38;100.00;101447.24;1612663;88;21531;-64
2022/12/07 01:26:04;;;;;;;9.43;4.58;;;;;;;-10.38;100.00;101452.68;1617480;88;21248;-61
2022/12/07 01:28:31;;;;;;;14.53;5.78;;;;;;;-10.38;100.00;101442.20;1617333;87;21007;-63
2022/12/07 01:31:09;;;;;;;10.70;5.05;;;;;;;-10.40;100.00;101451.45;1617749;88;21391;-61
2022/12/07 01:33:37;;;;;;;11.25;4.83;;;;;;;-10.42;100.00;101454.41;1616165;88;21038;-62
2022/12/07 01:36:14;;;;;;;13.32;5.33;;;;;;;-10.45;100.00;101444.39;1617707;88;22139;-62
2022/12/07 01:38:42;;;;;;;12.63;5.83;;;;;;;-10.45;100.00;101448.17;1617494;87;21248;-62
2022/12/07 01:41:10;;;;;;;10.38;5.20;;;;;;;-10.45;100.00;101448.61;1617622;88;20994;-61
2022/12/07 01:44:12;;;;;;;11.25;5.10;;;;;;;-10.46;100.00;101448.17;1617474;88;21474;-64
2022/12/07 01:46:39;;;;;;;9.18;4.78;;;;;;;-10.46;100.00;101440.19;1618069;88;21702;-62
2022/12/07 01:49:11;;;;;;;8.88;4.00;;;;;;;-10.46;100.00;101438.92;1617238;87;20943;-65
2022/12/07 01:51:39;;;;;;;11.25;4.90;;;;;;;-10.47;100.00;101430.14;1617745;88;21904;-64
2022/12/07 01:54:06;;;;;;;12.50;5.17;;;;;;;-10.47;100.00;101433.92;1617151;88;20990;-62
2022/12/07 01:56:34;;;;;;;11.63;5.45;;;;;;;-10.48;100.00;101442.34;1617719;87;21022;-61
2022/12/07 01:59:02;;;;;;;9.80;5.47;;;;;;;-10.48;100.00;101436.04;1617351;88;21025;-64
2022/12/07 02:01:29;;;;;;;9.93;5.28;;;;;;;-10.50;100.00;101429.74;1617779;88;21045;-62
2022/12/07 02:03:59;;;;;;;13.43;6.28;;;;;;;-10.51;100.00;101425.56;1625573;86;21341;-62
2022/12/07 02:06:28;;;;;;;9.95;4.87;;;;;;;-10.52;100.00;101433.16;1649546;86;20961;-63
2022/12/07 02:08:55;;;;;;;12.43;5.30;;;;;;;-10.52;100.00;101441.98;1649327;86;21028;-64
2022/12/07 02:11:23;;;;;;;11.40;5.20;;;;;;;-10.54;100.00;101430.64;1649670;86;21039;-61
2022/12/07 02:13:51;;;;;;;10.90;5.70;;;;;;;-10.56;100.00;101432.36;1649189;86;21025;-61
2022/12/07 02:16:27;;;;;;;12.55;6.58;;;;;;;-10.56;100.00;101439.92;1619855;86;21283;-62
2022/12/07 02:19:50;;;;;;;13.48;5.72;;;;;;;-10.56;100.00;101434.45;1649008;86;21010;-64
2022/12/07 02:23:05;;;;;;;10.80;5.12;;;;;;;-10.57;100.00;101441.61;1648997;86;21080;-61
2022/12/07 02:25:57;;;;;;;13.80;5.60;;;;;;;-10.58;100.00;101444.13;1649384;86;21472;-62
2022/12/07 02:28:36;;;;;;;11.20;5.30;;;;;;;-10.61;100.00;101434.09;1649345;86;20957;-62
2022/12/07 02:31:17;;;;;;;12.60;4.97;;;;;;;-10.61;100.00;101434.09;1623121;86;21385;-64
2022/12/07 02:33:49;;;;;;;13.32;6.08;;;;;;;-10.63;100.00;101437.90;1649295;86;20964;-64
2022/12/07 02:36:27;;;;;;;13.28;5.95;;;;;;;-10.65;100.00;101438.33;1649769;86;21444;-61
2022/12/07 02:39:22;;;;;;;16.15;6.42;;;;;;;-10.66;100.00;101430.37;1648245;86;21012;-61
2022/12/07 02:41:56;;;;;;;14.93;6.80;;;;;;;-10.65;100.00;101423.64;1649961;86;22164;-61
2022/12/07 02:44:25;;;;;;;12.15;5.35;;;;;;;-10.67;100.00;101412.34;1649213;86;21256;-62
2022/12/07 02:46:59;;;;;;;9.45;5.30;;;;;;;-10.66;100.00;101418.20;1649656;86;20992;-61
2022/12/07 02:49:27;;;;;;;11.20;5.03;;;;;;;-10.68;100.00;101415.72;1649465;86;20925;-61
2022/12/07 02:51:55;;;;;;;11.55;5.08;;;;;;;-10.71;100.00;101420.80;1649234;86;20957;-64
2022/12/07 02:54:23;;;;;;;10.38;5.08;;;;;;;-10.73;100.00;101409.06;1649551;86;21035;-61
2022/12/07 02:57:14;;;;;;;11.65;5.22;;;;;;;-10.74;100.00;101418.73;1649717;86;21170;-61
2022/12/07 03:00:08;;;;;;;9.73;4.40;;;;;;;-10.74;100.00;101417.05;1648836;86;20905;-61
2022/12/07 03:02:41;;;;;;;12.55;7.28;;;;;;;-10.74;100.00;101423.77;1642871;86;21004;-61
2022/12/07 03:05:31;;;;;;;14.38;6.58;;;;;;;-10.73;100.00;101420.39;1645011;86;21017;-65
2022/12/07 03:08:30;;;;;;;12.28;5.75;;;;;;;-10.76;100.00;101421.25;1620063;88;21455;-65
2022/12/07 03:11:00;;;;;;;15.68;6.37;;;;;;;-10.77;100.00;101425.06;1619990;87;21243;-62
2022/12/07 03:13:52;;;;;;;12.53;5.97;;;;;;;-10.80;100.00;101424.66;1620229;88;21013;-61
2022/12/07 03:16:27;;;;;;;10.95;5.67;;;;;;;-10.81;100.00;101416.71;1619551;88;20958;-60
2022/12/07 03:19:05;;;;;;;13.88;5.97;;;;;;;-10.83;100.00;101408.36;1619893;88;20973;-61
2022/12/07 03:21:50;;;;;;;11.03;5.92;;;;;;;-10.86;100.00;101416.78;1619107;87;21104;-63
2022/12/07 03:24:22;;;;;;;9.98;5.50;;;;;;;-10.88;100.00;101419.72;1569684;87;21351;-63
2022/12/07 03:27:02;;;;;;;11.43;5.17;;;;;;;-10.91;100.00;101418.52;1619866;87;20962;-65
2022/12/07 03:29:38;;;;;;;12.50;5.87;;;;;;;-10.91;100.00;101420.19;1618535;87;21579;-62
2022/12/07 03:32:29;;;;;;;12.55;5.17;;;;;;;-10.91;100.00;101412.63;1619614;88;20980;-61
2022/12/07 03:35:16;;;;;;;14.13;5.45;;;;;;;-10.94;100.00;101404.70;1619722;87;21107;-65
2022/12/07 03:37:57;;;;;;;12.07;5.33;;;;;;;-10.94;100.00;101402.63;1620102;87;21170;-61
2022/12/07 03:40:35;;;;;;;14.13;6.58;;;;;;;-10.95;100.00;101400.93;1619683;87;21096;-64
2022/12/07 03:43:02;;;;;;;11.22;6.00;;;;;;;-10.96;100.00;101400.53;1619161;88;20965;-61
2022/12/07 03:45:35;;;;;;;8.80;5.05;;;;;;;-10.97;100.00;101402.65;1619824;87;20937;-63
2022/12/07 03:48:10;;;;;;;10.90;4.60;;;;;;;-10.95;100.00;101399.67;1619382;88;21115;-64
2022/12/07 03:50:45;;;;;;;10.00;5.22;;;;;;;-10.96;100.00;101401.79;1620243;87;21151;-61
2022/12/07 03:53:28;;;;;;;13.40;5.37;;;;;;;-10.98;100.00;101397.19;1619740;87;21004;-61
2022/12/07 03:55:57;;;;;;;10.60;5.50;;;;;;;-10.99;100.00;101393.84;1592704;88;21561;-61
2022/12/07 03:58:24;;;;;;;8.68;5.03;;;;;;;-10.99;100.00;101398.05;1619843;87;21087;-61
2022/12/07 04:00:52;;;;;;;12.15;5.33;;;;;;;-11.02;100.00;101392.64;1619761;88;21021;-61
2022/12/07 04:03:19;;;;;;;13.65;5.92;;;;;;;-11.02;100.00;101391.38;1619223;87;21251;-61
2022/12/07 04:05:47;;;;;;;13.43;5.67;;;;;;;-11.01;100.00;101392.21;1629480;86;21035;-62
2022/12/07 04:08:14;;;;;;;8.80;4.70;;;;;;;-11.01;100.00;101387.17;1633751;86;21203;-61
2022/12/07 04:10:43;;;;;;;10.70;4.72;;;;;;;-11.01;100.00;101392.21;1633845;86;21058;-61
2022/12/07 04:13:10;;;;;;;10.08;5.25;;;;;;;-11.03;100.00;101395.56;1633590;87;21569;-64
2022/12/07 04:15:37;;;;;;;11.10;5.80;;;;;;;-11.05;100.00;101390.98;1633228;87;21287;-65
2022/12/07 04:18:05;;;;;;;10.65;4.53;;;;;;;-11.05;100.00;101384.69;1633682;86;21047;-61
2022/12/07 04:20:33;;;;;;;10.13;5.87;;;;;;;-11.04;100.00;101393.90;1634119;86;21546;-61
2022/12/07 04:23:01;;;;;;;11.10;5.22;;;;;;;-11.04;100.00;101387.61;1633973;86;21542;-61
2022/12/07 04:25:29;;;;;;;14.45;6.03;;;;;;;-11.03;100.00;101397.25;1633059;87;21016;-64
2022/12/07 04:27:56;;;;;;;18.35;7.00;;;;;;;-11.00;100.00;101391.34;1633675;86;22471;-61
2022/12/07 04:30:25;;;;;;;16.97;7.42;;;;;;;-11.01;100.00;101380.88;1633996;86;21501;-61
2022/12/07 04:32:52;;;;;;;10.65;5.53;;;;;;;-11.03;100.00;101383.40;1633920;86;21052;-63
2022/12/07 04:35:21;;;;;;;10.32;5.05;;;;;;;-11.04;100.00;101388.86;1633242;87;20940;-63
2022/12/07 04:37:49;;;;;;;11.53;5.17;;;;;;;-11.02;100.00;101401.45;1633605;86;22293;-61
2022/12/07 04:40:17;;;;;;;11.90;5.47;;;;;;;-11.03;100.00;101382.97;1633970;87;21208;-62
2022/12/07 04:42:44;;;;;;;13.93;6.40;;;;;;;-11.02;100.00;101383.83;1633806;86;21020;-62
2022/12/07 04:45:13;;;;;;;15.25;5.87;;;;;;;-11.03;100.00;101379.63;1633295;86;21572;-62
2022/12/07 04:47:42;;;;;;;11.45;5.10;;;;;;;-11.05;100.00;101380.91;1633216;87;22416;-62
2022/12/07 04:50:11;;;;;;;12.60;5.00;;;;;;;-11.05;100.00;101385.95;1634156;86;21067;-62
2022/12/07 04:52:39;;;;;;;10.13;4.70;;;;;;;-11.05;100.00;101376.31;1633952;87;21570;-61
2022/12/07 04:55:07;;;;;;;9.78;4.92;;;;;;;-11.06;100.00;101379.25;1633205;86;21089;-61
2022/12/07 04:57:35;;;;;;;11.57;5.65;;;;;;;-11.08;100.00;101378.42;1633488;87;21083;-64
2022/12/07 05:00:02;;;;;;;13.50;6.78;;;;;;;-11.05;100.00;101373.79;1633977;86;21509;-61
2022/12/07 05:02:30;;;;;;;14.05;6.37;;;;;;;-11.04;100.00;101369.98;1633999;87;20976;-64
2022/12/07 05:04:58;;;;;;;12.60;5.78;;;;;;;-11.04;100.00;101371.67;1627150;86;21583;-64
2022/12/07 05:07:25;;;;;;;15.48;7.47;;;;;;;-11.04;100.00;101376.27;1602091;89;21014;-63
2022/12/07 05:09:53;;;;;;;13.13;5.83;;;;;;;-11.01;100.00;101370.81;1604505;89;21111;-62
2022/12/07 05:12:21;;;;;;;10.53;5.58;;;;;;;-10.99;100.00;101355.23;1609967;89;20954;-62
2022/12/07 05:14:49;;;;;;;11.35;6.28;;;;;;;-10.98;100.00;101361.53;1610360;89;21029;-62
2022/12/07 05:17:16;;;;;;;11.93;5.55;;;;;;;-10.95;100.00;101367.77;1609093;88;22061;-65
2022/12/07 05:19:43;;;;;;;11.33;4.65;;;;;;;-10.87;100.00;101367.67;1609868;89;21040;-62
2022/12/07 05:22:11;;;;;;;12.03;4.67;;;;;;;-10.74;100.00;101370.45;1609958;88;21017;-62
2022/12/07 05:24:39;;;;;;;8.45;3.85;;;;;;;-10.59;100.00;101370.23;1610005;88;21006;-61
2022/12/07 05:27:06;;;;;;;11.80;5.28;;;;;;;-10.43;100.00;101375.05;1609816;89;21614;-64
2022/12/07 05:29:33;;;;;;;10.20;4.72;;;;;;;-10.26;100.00;101363.05;1609050;89;21156;-63
2022/12/07 05:32:01;;;;;;;13.03;5.25;;;;;;;-10.02;100.00;101359.69;1610148;87;21056;-61
2022/12/07 05:34:28;;;;;;;12.47;5.75;;;;;;;-9.77;100.00;101363.47;1610083;89;21417;-62
2022/12/07 05:36:56;;;;;;;11.93;6.40;;;;;;;-9.53;100.00;101355.05;1609943;87;21018;-62
2022/12/07 05:39:24;;;;;;;10.78;6.15;;;;;;;-9.31;100.00;101363.89;1608986;89;21571;-66
2022/12/07 05:44:42;;;;;;;10.45;4.95;;;;;;;-8.88;100.00;101359.23;1610262;89;21064;-62
2022/12/07 05:47:10;;;;;;;12.63;5.17;;;;;;;-8.63;100.00;101362.06;1609231;89;21066;-64
2022/12/07 05:49:37;;;;;;;11.83;5.58;;;;;;;-8.48;100.00;101361.73;1610062;89;21032;-62
2022/12/07 05:52:05;;;;;;;13.48;5.65;;;;;;;-8.45;100.00;101359.10;1609582;89;21043;-63
2022/12/07 05:54:32;;;;;;;10.20;5.33;;;;;;;-8.35;100.00;101360.97;1609775;89;21181;-63
2022/12/07 05:57:00;;;;;;;10.68;5.05;;;;;;;-8.36;100.00;101360.14;1609367;89;20943;-64
2022/12/07 05:59:28;;;;;;;10.00;5.70;;;;;;;-8.45;100.00;101357.84;1613093;88;21281;-65
2022/12/07 06:02:03;;;;;;;12.58;5.78;;;;;;;-8.59;100.00;101361.96;1609788;89;21118;-62
2022/12/07 06:04:33;;;;;;;11.70;5.55;;;;;;;-8.60;100.00;101361.57;1609604;89;20974;-61
2022/12/07 06:07:02;;;;;;;11.08;5.62;;;;;;;-8.64;100.00;101365.00;1604735;87;21517;-62
2022/12/07 06:09:30;;;;;;;12.13;5.53;;;;;;;-8.39;100.00;101358.15;1617755;86;21109;-63
2022/12/07 06:14:43;;;;;;;9.28;4.87;;;;;;;-8.04;100.00;101366.56;1602815;87;21014;-64
2022/12/07 06:17:12;;;;;;;13.38;5.87;;;;;;;-7.69;100.00;101350.08;1626498;87;21092;-64
2022/12/07 06:19:39;;;;;;;11.53;5.42;;;;;;;-7.40;100.00;101344.66;1604376;87;21188;-61
2022/12/07 06:22:08;;;;;;;14.30;5.90;;;;;;;-7.10;100.00;101342.53;1616955;86;20928;-62
2022/12/07 06:24:36;;;;;;;10.78;5.90;;;;;;;-6.94;100.00;101347.98;1630599;86;20967;-63
2022/12/07 06:27:04;;;;;;;9.28;5.30;;;;;;;-6.81;100.00;101353.55;1630295;86;21082;-61
2022/12/07 06:29:31;;;;;;;11.78;6.03;;;;;;;-6.62;100.00;101343.25;1630339;87;21030;-62
2022/12/07 06:31:59;;;;;;;12.98;5.85;;;;;;;-6.44;100.00;101359.61;1630579;86;21307;-62
2022/12/07 06:34:27;;;;;;;13.18;5.97;;;;;;;-6.28;100.00;101349.81;1630748;87;21022;-62
2022/12/07 06:36:55;;;;;;;9.40;5.72;;;;;;;-6.10;100.00;101348.37;1630178;86;22388;-60
2022/12/07 06:39:25;;;;;;;12.47;5.65;;;;;;;-5.96;100.00;101352.56;1630589;86;21090;-63
2022/12/07 06:41:53;;;;;;;11.75;5.22;;;;;;;-5.78;100.00;101353.64;1612513;87;21092;-61
2022/12/07 06:44:21;;;;;;;16.93;6.05;;;;;;;-5.65;100.00;101350.23;1603543;87;21826;-60
2022/12/07 06:46:49;;;;;;;11.43;5.22;;;;;;;-5.60;100.00;101350.09;1602853;87;20955;-63
2022/12/07 06:49:16;;;;;;;12.00;6.08;;;;;;;-5.59;100.00;101345.40;1603270;88;21537;-64
2022/12/07 06:51:43;;;;;;;10.18;5.47;;;;;;;-5.54;100.00;101330.81;1603082;87;21611;-61
2022/12/07 06:54:13;;;;;;;10.43;5.87;;;;;;;-5.44;100.00;101332.98;1603392;87;21576;-65
2022/12/07 06:56:40;;;;;;;11.10;5.50;;;;;;;-5.43;100.00;101333.81;1602801;88;21159;-65
2022/12/07 06:59:08;;;;;;;11.63;5.17;;;;;;;-5.42;100.00;101329.96;1603285;87;21078;-64
2022/12/07 07:01:36;;;;;;;11.80;5.72;;;;;;;-5.35;100.00;101333.53;1602791;87;21023;-67
2022/12/07 07:04:03;;;;;;;12.95;6.28;;;;;;;-5.28;100.00;101344.70;1603453;87;21572;-64
2022/12/07 07:06:31;;;;;;;14.03;6.37;;;;;;;-5.18;100.00;101338.41;1605699;88;21050;-64
2022/12/07 07:08:59;;;;;;;10.08;5.67;;;;;;;-5.04;100.00;101344.69;1626279;87;21359;-64
2022/12/07 07:11:26;;;;;;;11.83;6.15;;;;;;;-5.01;100.00;101333.96;1635567;87;21504;-66
2022/12/07 07:13:56;;;;;;;11.38;5.62;;;;;;;-4.93;100.00;101333.67;1636159;87;21169;-63
2022/12/07 07:16:23;;;;;;;11.50;5.55;;;;;;;-4.84;100.00;101333.80;1635887;87;21585;-63
2022/12/07 07:18:51;;;;;;;13.30;6.37;;;;;;;-4.81;100.00;101348.50;1632913;87;21100;-63
2022/12/07 07:21:18;;;;;;;9.35;5.22;;;;;;;-4.81;100.00;101337.47;1630935;86;22640;-62
2022/12/07 07:23:46;;;;;;;14.30;5.95;;;;;;;-4.80;100.00;101322.62;1604579;88;21028;-63
2022/12/07 07:26:14;;;;;;;10.05;5.50;;;;;;;-4.75;100.00;101343.61;1608836;89;22504;-66
2022/12/07 07:28:41;;;;;;;16.90;8.20;;;;;;;-4.77;100.00;101338.59;1607851;87;21019;-65
2022/12/07 07:31:09;;;;;;;15.83;7.00;;;;;;;-4.69;100.00;101337.85;1608406;89;21436;-66
2022/12/07 07:33:36;;;;;;;11.40;5.70;;;;;;;-4.59;100.00;101329.84;1607969;89;21270;-64
2022/12/07 07:36:05;;;;;;;17.37;7.25;;;;;;;-4.57;100.00;101330.63;1608400;89;21129;-64
2022/12/07 07:38:32;;;;;;;9.83;5.10;;;;;;;-4.63;100.00;101337.22;1608507;88;20944;-66
2022/12/07 07:41:01;;;;;;;12.55;6.92;;;;;;;-4.67;100.00;101341.14;1613772;87;21039;-67
2022/12/07 07:43:28;;;;;;;11.55;5.40;;;;;;;-4.87;100.00;101333.45;1636194;87;21085;-66
2022/12/07 07:45:56;;;;;;;9.70;4.58;;;;;;;-5.14;100.00;101330.23;1635662;86;22300;-68
2022/12/07 07:48:25;;;;;;;13.50;6.05;;;;;;;-5.39;100.00;101317.56;1636020;87;21602;-67
2022/12/07 07:50:52;;;;;;;18.67;6.97;;;;;;;-5.59;100.00;101323.36;1635922;87;21069;-68
2022/12/07 07:53:20;;;;;;;17.98;7.03;;;;;;;-5.75;100.00;101334.49;1635750;87;21843;-68
2022/12/07 07:55:53;;;;;;;12.53;5.60;;;;;;;-5.84;100.00;101318.28;1635303;87;21054;-67
2022/12/07 07:58:21;;;;;;;12.58;6.25;;;;;;;-5.87;100.00;101326.85;1635993;87;22986;-66
2022/12/07 08:00:49;;;;;;;11.15;6.05;;;;;;;-5.90;100.00;101318.06;1636090;87;20892;-67
2022/12/07 08:03:16;;;;;;;10.93;5.67;;;;;;;-5.95;100.00;101315.31;1635571;87;21524;-67
2022/12/07 08:05:45;;;;;;;14.15;5.70;;;;;;;-6.01;100.00;101305.38;1619780;87;22666;-68
2022/12/07 08:08:12;;;;;;;10.08;6.12;;;;;;;-6.00;100.00;101303.22;1602463;87;21019;-68
2022/12/07 08:10:41;;;;;;;10.70;5.47;;;;;;;-5.82;100.00;101305.55;1601869;89;21279;-65
2022/12/07 08:13:11;;;;;;;10.98;5.67;;;;;;;-5.52;100.00;101301.13;1601571;88;21108;-65
2022/12/07 08:15:39;;;;;;;11.60;5.87;;;;;;;-5.19;100.00;101294.82;1601884;89;21120;-66
2022/12/07 08:18:06;;;;;;;8.23;4.85;;;;;;;-4.85;100.00;101301.15;1601593;88;21020;-64
2022/12/07 08:20:34;;;;;;;9.08;5.37;;;;;;;-4.54;100.00;101267.73;1601743;88;21035;-67
2022/12/07 08:23:02;;;;;;;10.80;5.08;;;;;;;-4.23;100.00;101263.94;1601680;89;22271;-66
2022/12/07 08:25:29;;;;;;;12.93;5.08;;;;;;;-3.90;100.00;101261.70;1600211;89;20912;-66
2022/12/07 08:27:57;;;;;;;12.18;5.95;;;;;;;-3.63;100.00;101271.14;1601687;89;21115;-66
2022/12/07 08:30:24;;;;;;;11.85;7.25;;;;;;;-3.39;100.00;101256.47;1601848;89;21604;-65
2022/12/07 08:32:52;;;;;;;10.13;5.62;;;;;;;-3.24;100.00;101245.58;1601612;89;21028;-66
2022/12/07 08:35:21;;;;;;;9.48;5.72;;;;;;;-3.12;100.00;101238.27;1600677;89;21223;-66
2022/12/07 08:37:48;;;;;;;14.55;6.70;;;;;;;-3.16;100.00;101243.13;1609622;87;21042;-66
2022/12/07 08:40:18;;;;;;;11.95;6.50;;;;;;;-3.26;100.00;101249.94;1620326;88;21145;-66
2022/12/07 08:42:50;;;;;;;13.35;5.72;;;;;;;-3.31;100.00;101228.91;1629044;88;21019;-67
2022/12/07 08:45:17;;;;;;;17.67;9.55;;;;;;;-3.31;100.00;101228.91;1628162;88;21064;-67
2022/12/07 08:47:57;;;;;;;18.92;9.55;;;;;;;-3.33;100.00;101243.46;1629056;87;21358;-67
2022/12/07 08:50:25;;;;;;;19.52;12.37;;;;;;;-3.40;100.00;101225.52;1628814;87;20975;-67
2022/12/07 08:52:55;;;;;;;16.32;9.05;;;;;;;-3.40;100.00;101215.31;1618713;88;21683;-67
2022/12/07 08:55:23;;;;;;;12.25;6.92;;;;;;;-3.47;100.00;101212.20;1601801;89;22429;-66
2022/12/07 08:57:52;;;;;;;11.83;5.33;;;;;;;-3.51;100.00;101241.73;1602200;89;21553;-68
2022/12/07 09:00:20;;;;;;;9.08;5.58;;;;;;;-3.43;100.00;101215.45;1602135;89;21892;-65
2022/12/07 09:02:48;;;;;;;9.70;5.72;;;;;;;-3.38;100.00;101215.23;1598762;89;21051;-67
2022/12/07 09:05:15;;;;;;;10.63;6.08;;;;;;;-3.40;100.00;101215.31;1601421;89;21608;-66
2022/12/07 09:07:45;;;;;;;10.63;5.62;;;;;;;-3.44;100.00;101203.61;1602055;87;22206;-67
2022/12/07 09:10:12;;;;;;;12.47;5.97;;;;;;;-3.43;100.00;101214.17;1611073;87;20967;-66
2022/12/07 09:12:40;;;;;;;10.68;5.58;;;;;;;-3.48;100.00;101216.12;1595533;88;21259;-69
2022/12/07 09:15:08;;;;;;;13.18;6.33;;;;;;;-3.48;100.00;101208.02;1586437;89;21436;-68
2022/12/07 09:17:36;;;;;;;12.63;7.17;;;;;;;-3.45;100.00;101202.78;1586983;89;21189;-68
2022/12/07 09:20:05;;;;;;;11.60;5.78;;;;;;;-3.38;100.00;101205.03;1589465;88;21607;-65
2022/12/07 09:22:32;;;;;;;12.85;5.85;;;;;;;-3.44;100.00;101205.70;1610550;87;21042;-66
2022/12/07 09:25:00;;;;;;;10.10;5.90;;;;;;;-3.47;100.00;101207.11;1602475;89;21140;-67
2022/12/07 09:27:27;;;;;;;9.53;5.25;;;;;;;-3.53;100.00;101189.99;1602441;89;21101;-65
2022/12/07 09:29:55;;;;;;;9.55;5.35;;;;;;;-3.53;100.00;101192.54;1617531;87;21506;-66
2022/12/07 09:32:24;;;;;;;11.57;5.80;;;;;;;-3.55;100.00;101187.98;1613478;88;21498;-66
2022/12/07 09:34:52;;;;;;;15.45;5.70;;;;;;;-3.61;100.00;101172.95;1613539;88;21101;-67
2022/12/07 09:37:19;;;;;;;11.50;5.83;;;;;;;-3.60;100.00;101178.42;1612302;88;21307;-67
2022/12/07 09:39:47;;;;;;;14.18;7.78;;;;;;;-3.59;100.00;101158.44;1613409;88;21157;-67
2022/12/07 09:42:35;;;;;;;10.90;5.60;;;;;;;-3.59;100.00;101174.55;1613306;88;20947;-67
2022/12/07 09:45:05;;;;;;;11.75;5.90;;;;;;;-3.54;100.00;101159.04;1612823;88;21030;-68
2022/12/07 09:47:33;;;;;;;12.80;6.65;;;;;;;-3.53;100.00;101150.03;1607626;88;21030;-68
2022/12/07 09:50:17;;;;;;;8.63;5.10;;;;;;;-3.47;100.00;101139.57;1613407;88;21186;-69
2022/12/07 09:52:45;;;;;;;10.80;5.72;;;;;;;-3.40;100.00;101146.94;1612891;88;21508;-68
2022/12/07 09:55:31;;;;;;;9.08;4.45;;;;;;;-3.43;100.00;101167.02;1613091;88;21154;-65
2022/12/07 09:57:58;;;;;;;8.88;5.17;;;;;;;-3.47;100.00;101162.51;1613415;88;20915;-64
2022/12/07 10:00:28;;;;;;;10.70;5.53;;;;;;;-3.55;100.00;101140.38;1612770;88;21075;-65
2022/12/07 10:03:00;;;;;;;12.80;5.65;;;;;;;-3.56;100.00;101140.01;1612893;88;22504;-68
2022/12/07 10:05:34;;;;;;;12.05;4.47;;;;;;;-3.55;100.00;101130.19;1613317;88;20975;-66
2022/12/07 10:08:01;;;;;;;8.28;4.12;;;;;;;-3.57;100.00;101135.79;1630155;85;21039;-68
2022/12/07 10:10:34;;;;;;;8.83;4.75;;;;;;;-3.55;100.00;101129.36;1635698;87;21009;-65
2022/12/07 10:13:17;;;;;;;10.48;5.28;;;;;;;-3.52;100.00;101129.23;1636179;87;21165;-68
2022/12/07 10:15:53;;;;;;;10.58;5.00;;;;;;;-3.53;100.00;101122.00;1631851;87;21839;-65
2022/12/07 10:18:28;;;;;;;12.13;5.05;;;;;;;-3.52;100.00;101116.48;1635108;87;20963;-68
2022/12/07 10:21:23;;;;;;;11.73;5.15;;;;;;;-3.53;100.00;101127.55;1630542;87;21079;-64
2022/12/07 10:24:14;;;;;;;8.20;4.10;;;;;;;-3.58;100.00;101126.95;1628733;87;21083;-68
2022/12/07 10:26:51;;;;;;;9.83;4.53;;;;;;;-3.64;100.00;101127.22;1635689;87;21512;-67
2022/12/07 10:29:33;;;;;;;9.58;3.87;;;;;;;-3.68;100.00;101134.18;1611678;88;21087;-70
2022/12/07 10:32:04;;;;;;;8.88;3.90;;;;;;;-3.70;100.00;101116.42;1612021;88;20919;-65
2022/12/07 10:34:37;;;;;;;11.57;4.37;;;;;;;-3.69;100.00;101118.07;1620585;87;21596;-64
2022/12/07 10:37:17;;;;;;;12.73;4.42;;;;;;;-3.64;100.00;101127.22;1635899;87;21056;-68
2022/12/07 10:39:53;;;;;;;11.10;3.92;;;;;;;-3.53;100.00;101132.66;1640515;87;21059;-69
2022/12/07 10:42:28;;;;;;;10.32;4.60;;;;;;;-3.41;100.00;101119.33;1630020;87;21257;-63
2022/12/07 10:45:15;;;;;;;11.73;4.42;;;;;;;-3.35;100.00;101120.78;1636124;87;21033;-68
2022/12/07 10:48:08;;;;;;;8.70;4.17;;;;;;;-3.33;100.00;101126.19;1637504;87;21118;-66
2022/12/07 10:50:53;;;;;;;13.20;6.17;;;;;;;-3.33;100.00;101137.66;1640508;87;21512;-67
2022/12/07 10:53:34;;;;;;;12.37;4.10;;;;;;;-3.30;100.00;101122.65;1637318;87;20970;-68
2022/12/07 10:56:21;;;;;;;9.25;4.17;;;;;;;-3.16;100.00;101120.73;1626602;87;22787;-68
2022/12/07 10:59:12;;;;;;;11.63;5.87;;;;;;;-3.04;100.00;101122.22;1620539;87;20983;-67
2022/12/07 11:02:03;;;;;;;27.77;15.60;;;;;;;-2.95;100.00;101108.22;1634358;87;21109;-69
2022/12/07 11:04:52;;;;;;;13.05;4.72;;;;;;;-2.85;100.00;101113.22;1639364;87;21603;-68
2022/12/07 11:07:27;;;;;;;8.95;3.52;;;;;;;-2.70;100.00;101110.36;1637060;86;21645;-67
2022/12/07 11:10:20;;;;;;;9.03;4.03;;;;;;;-2.61;100.00;101098.88;1604557;87;21299;-67
2022/12/07 11:13:14;;;;;;;9.40;3.92;;;;;;;-2.67;100.00;101118.33;1631302;87;20935;-66
2022/12/07 11:15:56;;;;;;;10.03;4.92;;;;;;;-2.74;100.00;101100.75;1630543;87;20956;-66
2022/12/07 11:18:42;;;;;;;16.02;6.62;;;;;;;-2.82;100.00;101100.31;1629724;87;20991;-65
2022/12/07 11:21:20;;;;;;;10.98;5.15;;;;;;;-2.81;100.00;101108.80;1577961;90;21181;-70
2022/12/07 11:23:56;;;;;;;10.65;4.95;;;;;;;-2.80;100.00;101097.25;1628534;87;21162;-64
2022/12/07 11:26:53;;;;;;;17.02;4.70;;;;;;;-2.79;100.00;101119.30;1630015;87;20908;-66
2022/12/07 11:29:58;;;;;;;10.53;4.00;;;;;;;-2.83;100.00;101097.86;1611698;87;21082;-63
2022/12/07 11:32:52;;;;;;;9.85;4.30;;;;;;;-2.92;100.00;101096.56;1603374;88;22388;-63
2022/12/07 11:35:44;;;;;;;12.85;4.53;;;;;;;-2.99;100.00;101092.69;1602157;88;21553;-67